Observation data for Tatum on 12/09/2018      Previous  Date       Current Mesonet Observations  Soil Data  Daily Summary Page  Observations in Plain Language
KTAT 090600Z 27001KT M07/M08 A3028 RMK A01 T10681077  RH  094%=      5-min Rain = 0
KTAT 090605Z 26002KT M07/M08 A3028 RMK A01 T10671076  RH  094%=      5-min Rain = 0
KTAT 090610Z 25002KT M07/M08 A3027 RMK A01 T10671076  RH  094%=      5-min Rain = 0
KTAT 090615Z 26002KT M07/M08 A3027 RMK A01 T10681077  RH  093%=      5-min Rain = 0
KTAT 090620Z 27003KT M07/M08 A3027 RMK A01 T10701080  RH  093%=      5-min Rain = 0
KTAT 090625Z 25003KT M07/M08 A3027 RMK A01 T10721082  RH  093%=      5-min Rain = 0
KTAT 090630Z 28002KT M07/M08 A3027 RMK A01 T10721081  RH  093%=      5-min Rain = 0
KTAT 090635Z 29003KT M07/M08 A3027 RMK A01 T10721082  RH  093%=      5-min Rain = 0
KTAT 090640Z 28003KT M07/M08 A3027 RMK A01 T10731082  RH  093%=      5-min Rain = 0
KTAT 090645Z 29003KT M07/M08 A3027 RMK A01 T10731083  RH  092%=      5-min Rain = 0
KTAT 090650Z 27004KT M08/M09 A3027 RMK A01 T10751086  RH  092%=      5-min Rain = 0
KTAT 090655Z 26004KT M08/M09 A3027 RMK A01 T10751085  RH  093%=      5-min Rain = 0
KTAT 090700Z 28004KT M07/M08 A3027 RMK A01 T10741084  RH  093%=      5-min Rain = 0
KTAT 090705Z 28004KT M08/M09 A3027 RMK A01 T10761086  RH  092%=      5-min Rain = 0
KTAT 090710Z 28004KT M08/M09 A3027 RMK A01 T10761086  RH  092%=      5-min Rain = 0
KTAT 090715Z 29003KT M08/M09 A3027 RMK A01 T10751085  RH  092%=      5-min Rain = 0
KTAT 090720Z 29003KT M08/M09 A3027 RMK A01 T10751085  RH  092%=      5-min Rain = 0
KTAT 090725Z 28003KT M07/M09 A3027 RMK A01 T10741085  RH  092%=      5-min Rain = 0
KTAT 090730Z 28003KT M08/M09 A3027 RMK A01 T10751085  RH  092%=      5-min Rain = 0
KTAT 090735Z 28003KT M07/M09 A3027 RMK A01 T10741085  RH  092%=      5-min Rain = 0
KTAT 090740Z 27004KT M08/M09 A3027 RMK A01 T10751086  RH  092%=      5-min Rain = 0
KTAT 090745Z 26004KT M08/M09 A3027 RMK A01 T10751086  RH  092%=      5-min Rain = 0
KTAT 090750Z 26005KT M08/M09 A3027 RMK A01 T10771089  RH  091%=      5-min Rain = 0
KTAT 090755Z 27004KT M08/M09 A3027 RMK A01 T10771088  RH  091%=      5-min Rain = 0
KTAT 090800Z 28004KT M08/M09 A3027 RMK A01 T10771089  RH  091%=      5-min Rain = 0
KTAT 090805Z 27004KT M08/M09 A3027 RMK A01 T10781090  RH  091%=      5-min Rain = 0
KTAT 090810Z 27004KT M08/M09 A3027 RMK A01 T10791090  RH  091%=      5-min Rain = 0
KTAT 090815Z 28004KT M08/M09 A3027 RMK A01 T10781089  RH  092%=      5-min Rain = 0
KTAT 090820Z 29004KT M08/M09 A3027 RMK A01 T10771088  RH  092%=      5-min Rain = 0
KTAT 090825Z 27005KT M08/M09 A3027 RMK A01 T10771088  RH  092%=      5-min Rain = 0
KTAT 090830Z 28004KT M08/M09 A3027 RMK A01 T10771089  RH  091%=      5-min Rain = 0
KTAT 090835Z 33003KT M08/M09 A3027 RMK A01 T10781089  RH  092%=      5-min Rain = 0
KTAT 090840Z 30003KT M08/M09 A3026 RMK A01 T10761086  RH  092%=      5-min Rain = 0
KTAT 090845Z 33004KT M08/M09 A3027 RMK A01 T10761086  RH  092%=      5-min Rain = 0
KTAT 090850Z 31003KT M08/M09 A3027 RMK A01 T10761086  RH  092%=      5-min Rain = 0
KTAT 090855Z 30004KT M08/M09 A3026 RMK A01 T10751086  RH  092%=      5-min Rain = 0
KTAT 090900Z 29004KT M08/M09 A3026 RMK A01 T10751086  RH  092%=      5-min Rain = 0
KTAT 090905Z 28005KT M08/M09 A3027 RMK A01 T10771088  RH  091%=      5-min Rain = 0
KTAT 090910Z 28005KT M08/M09 A3027 RMK A01 T10781090  RH  091%=      5-min Rain = 0
KTAT 090915Z 27005KT M08/M09 A3026 RMK A01 T10801091  RH  091%=      5-min Rain = 0
KTAT 090920Z 26005KT M08/M09 A3026 RMK A01 T10801092  RH  091%=      5-min Rain = 0
KTAT 090925Z 26005KT M08/M09 A3026 RMK A01 T10801091  RH  092%=      5-min Rain = 0
KTAT 090930Z 25005KT M08/M09 A3026 RMK A01 T10791089  RH  092%=      5-min Rain = 0
KTAT 090935Z 26004KT M08/M09 A3026 RMK A01 T10781088  RH  092%=      5-min Rain = 0
KTAT 090940Z 27004KT M08/M09 A3026 RMK A01 T10801092  RH  091%=      5-min Rain = 0
KTAT 090945Z 29004KT M08/M10 A3026 RMK A01 T10831095  RH  091%=      5-min Rain = 0
KTAT 090950Z 29004KT M08/M09 A3026 RMK A01 T10811092  RH  092%=      5-min Rain = 0
KTAT 090955Z 33003KT M08/M09 A3027 RMK A01 T10811092  RH  091%=      5-min Rain = 0
KTAT 091000Z 32004KT M08/M09 A3027 RMK A01 T10791089  RH  092%=      5-min Rain = 0
KTAT 091005Z 33004KT M08/M09 A3027 RMK A01 T10771087  RH  093%=      5-min Rain = 0
KTAT 091010Z 33004KT M08/M09 A3027 RMK A01 T10751085  RH  092%=      5-min Rain = 0
KTAT 091015Z 34005KT M08/M09 A3027 RMK A01 T10761087  RH  092%=      5-min Rain = 0
KTAT 091020Z 35004KT M08/M09 A3026 RMK A01 T10761087  RH  092%=      5-min Rain = 0
KTAT 091025Z 33004KT M08/M08 A3026 RMK A01 T10751084  RH  093%=      5-min Rain = 0
KTAT 091030Z 34004KT M08/M09 A3026 RMK A01 T10771088  RH  091%=      5-min Rain = 0
KTAT 091035Z 34003KT M08/M09 A3026 RMK A01 T10781089  RH  092%=      5-min Rain = 0
KTAT 091040Z 34002KT M08/M09 A3026 RMK A01 T10771087  RH  093%=      5-min Rain = 0
KTAT 091045Z 34003KT M08/M09 A3026 RMK A01 T10771086  RH  093%=      5-min Rain = 0
KTAT 091050Z 34003KT M08/M09 A3026 RMK A01 T10781087  RH  093%=      5-min Rain = 0
KTAT 091055Z 35004KT M08/M09 A3026 RMK A01 T10781086  RH  093%=      5-min Rain = 0
KTAT 091100Z 35005KT M08/M09 A3027 RMK A01 T10771086  RH  093%=      5-min Rain = 0
KTAT 091105Z 35004KT M08/M09 A3027 RMK A01 T10771088  RH  092%=      5-min Rain = 0
KTAT 091110Z 35003KT M08/M09 A3027 RMK A01 T10781088  RH  092%=      5-min Rain = 0
KTAT 091115Z 35003KT M08/M09 A3027 RMK A01 T10761086  RH  092%=      5-min Rain = 0
KTAT 091120Z 32003KT M08/M08 A3027 RMK A01 T10751084  RH  093%=      5-min Rain = 0
KTAT 091125Z 34004KT M07/M08 A3027 RMK A01 T10731082  RH  093%=      5-min Rain = 0
KTAT 091130Z 35005KT M07/M08 A3028 RMK A01 T10711080  RH  093%=      5-min Rain = 0
KTAT 091135Z 34004KT M07/M07 A3028 RMK A01 T10661074  RH  094%=      5-min Rain = 0
KTAT 091140Z 35005KT M07/M07 A3028 RMK A01 T10651074  RH  094%=      5-min Rain = 0
KTAT 091145Z 34004KT M07/M08 A3028 RMK A01 T10661076  RH  093%=      5-min Rain = 0
KTAT 091150Z 35004KT M07/M08 A3028 RMK A01 T10691080  RH  092%=      5-min Rain = 0
KTAT 091155Z 35004KT M07/M08 A3028 RMK A01 T10701081  RH  092%=      5-min Rain = 0
KTAT 091200Z 34003KT M07/M08 A3029 RMK A01 T10701081  RH  092%=      5-min Rain = 0
KTAT 091205Z 34004KT M07/M08 A3029 RMK A01 T10701080  RH  093%=      5-min Rain = 0
KTAT 091210Z 34004KT M07/M08 A3029 RMK A01 T10701081  RH  092%=      5-min Rain = 0
KTAT 091215Z 33004KT M07/M09 A3029 RMK A01 T10741085  RH  091%=      5-min Rain = 0
KTAT 091220Z 33004KT M08/M09 A303 RMK A01 T10761088  RH  091%=      5-min Rain = 0
KTAT 091225Z 33004KT M08/M09 A303 RMK A01 T10781090  RH  091%=      5-min Rain = 0
KTAT 091230Z 34004KT M08/M09 A303 RMK A01 T10781088  RH  092%=      5-min Rain = 0
KTAT 091235Z 34005KT M08/M09 A303 RMK A01 T10791090  RH  092%=      5-min Rain = 0
KTAT 091240Z 34005KT M08/M09 A3031 RMK A01 T10801090  RH  092%=      5-min Rain = 0
KTAT 091245Z 33005KT M08/M09 A3031 RMK A01 T10781087  RH  093%=      5-min Rain = 0
KTAT 091250Z 33004KT M07/M08 A3031 RMK A01 T10711078  RH  094%=      5-min Rain = 0
KTAT 091255Z 32004KT M06/M07 A3031 RMK A01 T10621069  RH  095%=      5-min Rain = 0
KTAT 091300Z 33004KT M06/M07 A3031 RMK A01 T10581065  RH  095%=      5-min Rain = 0
KTAT 091305Z 34003KT M05/M06 A3031 RMK A01 T10531061  RH  095%=      5-min Rain = 0
KTAT 091310Z 34003KT M05/M06 A3031 RMK A01 T10491057  RH  095%=      5-min Rain = 0
KTAT 091315Z 34004KT M04/M05 A3032 RMK A01 T10441051  RH  095%=      5-min Rain = 0
KTAT 091320Z 34004KT M04/M05 A3032 RMK A01 T10391046  RH  095%=      5-min Rain = 0
KTAT 091325Z 34004KT M03/M04 A3032 RMK A01 T10331040  RH  095%=      5-min Rain = 0
KTAT 091330Z 34004KT M03/M04 A3032 RMK A01 T10301037  RH  095%=      5-min Rain = 0
KTAT 091335Z 34004KT M03/M03 A3032 RMK A01 T10251032  RH  095%=      5-min Rain = 0
KTAT 091340Z 34004KT M02/M03 A3033 RMK A01 T10201027  RH  095%=      5-min Rain = 0
KTAT 091345Z 34004KT M02/M02 A3033 RMK A01 T10161023  RH  096%=      5-min Rain = 0
KTAT 091350Z 33004KT M01/M02 A3033 RMK A01 T10121019  RH  096%=      5-min Rain = 0
KTAT 091355Z 33004KT M01/M02 A3033 RMK A01 T10101017  RH  096%=      5-min Rain = 0
KTAT 091400Z 34004KT M01/M02 A3033 RMK A01 T10091016  RH  096%=      5-min Rain = 0
KTAT 091405Z 35005KT M01/M02 A3033 RMK A01 T10081015  RH  096%=      5-min Rain = 0
KTAT 091410Z 00006KT M01/M01 A3034 RMK A01 T10071014  RH  096%=      5-min Rain = 0
KTAT 091415Z 33007KT M01/M02 A3034 RMK A01 T10081015  RH  096%=      5-min Rain = 0
KTAT 091420Z 35007KT M01/M02 A3034 RMK A01 T10091016  RH  096%=      5-min Rain = 0
KTAT 091425Z 36005KT M01/M02 A3034 RMK A01 T10091015  RH  096%=      5-min Rain = 0
KTAT 091430Z 35005KT M01/M01 A3034 RMK A01 T10081014  RH  096%=      5-min Rain = 0
KTAT 091435Z 35004KT M01/M01 A3035 RMK A01 T10081014  RH  096%=      5-min Rain = 0
KTAT 091440Z 35003KT M01/M01 A3035 RMK A01 T10071013  RH  096%=      5-min Rain = 0
KTAT 091445Z 34003KT M01/M01 A3035 RMK A01 T10061013  RH  096%=      5-min Rain = 0
KTAT 091450Z 34003KT M01/M01 A3035 RMK A01 T10051012  RH  096%=      5-min Rain = 0
KTAT 091455Z 32002KT M00/M01 A3035 RMK A01 T10041011  RH  096%=      5-min Rain = 0
KTAT 091500Z 30002KT M00/M01 A3035 RMK A01 T10041010  RH  096%=      5-min Rain = 0
KTAT 091505Z 30002KT M00/M01 A3035 RMK A01 T10031009  RH  096%=      5-min Rain = 0
KTAT 091510Z 29002KT M00/M01 A3036 RMK A01 T10031009  RH  096%=      5-min Rain = 0
KTAT 091515Z 30002KT M00/M01 A3036 RMK A01 T10021009  RH  096%=      5-min Rain = 0
KTAT 091520Z 30003KT M00/M01 A3036 RMK A01 T10011008  RH  096%=      5-min Rain = 0
KTAT 091525Z 30003KT 00/01 A3036 RMK A01 T00-000-7  RH  096%=      5-min Rain = 0
KTAT 091530Z 29002KT 00/01 A3036 RMK A01 T000000-6  RH  096%=      5-min Rain = 0
KTAT 091535Z 28002KT 00/M01 A3036 RMK A01 T00011005  RH  096%=      5-min Rain = 0
KTAT 091540Z 28002KT 00/M01 A3037 RMK A01 T00021005  RH  096%=      5-min Rain = 0.01
KTAT 091545Z 28003KT 00/M00 A3037 RMK A01 T00031004  RH  096%=      5-min Rain = 0
KTAT 091550Z 27003KT 00/M00 A3037 RMK A01 T00031004  RH  096%=      5-min Rain = 0
KTAT 091555Z 25003KT 00/M00 A3037 RMK A01 T00041003  RH  096%=      5-min Rain = 0
KTAT 091600Z 26003KT 01/00 A3037 RMK A01 T00080001  RH  096%=      5-min Rain = 0
KTAT 091605Z 28003KT 01/00 A3038 RMK A01 T00100002  RH  096%=      5-min Rain = 0
KTAT 091610Z 30003KT 01/01 A3038 RMK A01 T00130005  RH  096%=      5-min Rain = 0
KTAT 091615Z 32003KT 02/01 A3038 RMK A01 T00160008  RH  095%=      5-min Rain = 0
KTAT 091620Z 33003KT 02/01 A3038 RMK A01 T00170008  RH  095%=      5-min Rain = 0
KTAT 091625Z 33003KT 02/01 A3038 RMK A01 T00180009  RH  095%=      5-min Rain = 0
KTAT 091630Z 33003KT 02/01 A3038 RMK A01 T00190009  RH  094%=      5-min Rain = 0
KTAT 091635Z 33003KT 02/01 A3038 RMK A01 T00210009  RH  093%=      5-min Rain = 0.01
KTAT 091640Z 32003KT 02/01 A3038 RMK A01 T00200005  RH  091%=      5-min Rain = 0.01
KTAT 091645Z 31002KT 02/01 A3038 RMK A01 T00230007  RH  090%=      5-min Rain = 0
KTAT 091650Z 30002KT 03/01 A3038 RMK A01 T00270006  RH  087%=      5-min Rain = 0
KTAT 091655Z 34003KT 03/00 A3038 RMK A01 T00250002  RH  086%=      5-min Rain = 0
KTAT 091700Z 33002KT 02/00 A3038 RMK A01 T00220001  RH  087%=      5-min Rain = 0
KTAT 091705Z 32002KT 03/01 A3038 RMK A01 T00290005  RH  085%=      5-min Rain = 0
KTAT 091710Z 33003KT 03/00 A3038 RMK A01 T00320003  RH  083%=      5-min Rain = 0.02
KTAT 091715Z 34003KT 03/00 A3038 RMK A01 T00290001  RH  083%=      5-min Rain = 0
KTAT 091720Z 34004KT 03/00 A3038 RMK A01 T002800-0  RH  083%=      5-min Rain = 0
KTAT 091725Z 34003KT 03/M00 A3038 RMK A01 T00281001  RH  082%=      5-min Rain = 0
KTAT 091730Z 33002KT 03/00 A3038 RMK A01 T003100-0  RH  081%=      5-min Rain = 0.01
KTAT 091735Z 33002KT 04/00 A3038 RMK A01 T003500-0  RH  079%=      5-min Rain = 0
KTAT 091740Z 35002KT 04/00 A3038 RMK A01 T004000-0  RH  076%=      5-min Rain = 0
KTAT 091745Z 32001KT 04/00 A3037 RMK A01 T00440000  RH  074%=      5-min Rain = 0.01
KTAT 091750Z 33002KT 04/M00 A3037 RMK A01 T00441001  RH  073%=      5-min Rain = 0.01
KTAT 091755Z 30001KT 05/00 A3037 RMK A01 T00470001  RH  073%=      5-min Rain = 0
KTAT 091800Z 25001KT 05/00 A3037 RMK A01 T00510001  RH  071%=      5-min Rain = 0.01
KTAT 091805Z 26001KT 05/00 A3037 RMK A01 T00510002  RH  071%=      5-min Rain = 0.01
KTAT 091810Z 25002KT 05/M00 A3037 RMK A01 T00491001  RH  071%=      5-min Rain = 0
KTAT 091815Z 22002KT 04/00 A3037 RMK A01 T00440000  RH  074%=      5-min Rain = 0.01
KTAT 091820Z 23002KT 05/00 A3036 RMK A01 T00500001  RH  072%=      5-min Rain = 0
KTAT 091825Z 24002KT 05/00 A3036 RMK A01 T00500000  RH  071%=      5-min Rain = 0.01
KTAT 091830Z 20003KT 05/00 A3036 RMK A01 T00520002  RH  071%=      5-min Rain = 0
KTAT 091835Z 20003KT 06/00 A3036 RMK A01 T00560003  RH  070%=      5-min Rain = 0.01
KTAT 091840Z 20002KT 06/00 A3036 RMK A01 T00620003  RH  067%=      5-min Rain = 0
KTAT 091845Z 21003KT 06/00 A3036 RMK A01 T00620002  RH  066%=      5-min Rain = 0.01
KTAT 091850Z 21003KT 06/00 A3035 RMK A01 T00620002  RH  067%=      5-min Rain = 0.01
KTAT 091855Z 21001KT 06/00 A3035 RMK A01 T00590002  RH  068%=      5-min Rain = 0
KTAT 091900Z 20002KT 07/01 A3035 RMK A01 T00660005  RH  066%=      5-min Rain = 0
KTAT 091905Z 21003KT 06/00 A3035 RMK A01 T00640003  RH  066%=      5-min Rain = 0.01
KTAT 091910Z 19003KT 06/00 A3034 RMK A01 T00620002  RH  066%=      5-min Rain = 0
KTAT 091915Z 19003KT 06/00 A3034 RMK A01 T00630002  RH  065%=      5-min Rain = 0
KTAT 091920Z 20001KT 07/00 A3034 RMK A01 T00660001  RH  064%=      5-min Rain = 0
KTAT 091925Z 27001KT 07/M00 A3034 RMK A01 T00671002  RH  062%=      5-min Rain = 0
KTAT 091930Z 23001KT 07/00 A3034 RMK A01 T00660002  RH  064%=      5-min Rain = 0.01
KTAT 091935Z 21001KT 07/00 A3034 RMK A01 T00680003  RH  064%=      5-min Rain = 0
KTAT 091940Z 22001KT 07/00 A3033 RMK A01 T00700004  RH  063%=      5-min Rain = 0
KTAT 091945Z 24001KT 06/00 A3033 RMK A01 T00640001  RH  065%=      5-min Rain = 0
KTAT 091950Z 23002KT 06/00 A3033 RMK A01 T00600002  RH  067%=      5-min Rain = 0
KTAT 091955Z 26002KT 06/00 A3033 RMK A01 T00590002  RH  068%=      5-min Rain = 0
KTAT 092000Z 22001KT 06/01 A3033 RMK A01 T00630006  RH  068%=      5-min Rain = 0
KTAT 092005Z 19001KT 07/01 A3032 RMK A01 T00670005  RH  065%=      5-min Rain = 0
KTAT 092010Z 18001KT 07/01 A3032 RMK A01 T00710006  RH  064%=      5-min Rain = 0
KTAT 092015Z 15001KT 08/01 A3032 RMK A01 T00790006  RH  061%=      5-min Rain = 0
KTAT 092020Z 16002KT 08/01 A3032 RMK A01 T00810005  RH  059%=      5-min Rain = 0
KTAT 092025Z 11001KT 08/01 A3032 RMK A01 T00810005  RH  060%=      5-min Rain = 0
KTAT 092030Z 17003KT 09/01 A3032 RMK A01 T00860009  RH  059%=      5-min Rain = 0
KTAT 092035Z 18003KT 08/01 A3032 RMK A01 T00800007  RH  061%=      5-min Rain = 0
KTAT 092040Z 19003KT 08/01 A3032 RMK A01 T00770009  RH  063%=      5-min Rain = 0
KTAT 092045Z 20004KT 07/01 A3032 RMK A01 T00720009  RH  065%=      5-min Rain = 0
KTAT 092050Z 21003KT 07/01 A3032 RMK A01 T00700006  RH  064%=      5-min Rain = 0
KTAT 092055Z 20002KT 07/01 A3032 RMK A01 T00710010  RH  066%=      5-min Rain = 0
KTAT 092100Z 21003KT 07/01 A3032 RMK A01 T00710007  RH  065%=      5-min Rain = 0
KTAT 092105Z 20003KT 07/01 A3032 RMK A01 T00700009  RH  066%=      5-min Rain = 0
KTAT 092110Z 19002KT 07/01 A3032 RMK A01 T00730008  RH  064%=      5-min Rain = 0
KTAT 092115Z 20003KT 08/01 A3032 RMK A01 T00760009  RH  063%=      5-min Rain = 0
KTAT 092120Z 20003KT 07/01 A3032 RMK A01 T00740007  RH  064%=      5-min Rain = 0
KTAT 092125Z 20003KT 07/01 A3032 RMK A01 T00740007  RH  063%=      5-min Rain = 0
KTAT 092130Z 22003KT 07/01 A3032 RMK A01 T00680006  RH  066%=      5-min Rain = 0
KTAT 092135Z 23002KT 07/01 A3032 RMK A01 T00670005  RH  065%=      5-min Rain = 0
KTAT 092140Z 22002KT 07/01 A3032 RMK A01 T00690007  RH  066%=      5-min Rain = 0
KTAT 092145Z 18002KT 07/01 A3032 RMK A01 T00700007  RH  065%=      5-min Rain = 0
KTAT 092150Z 18002KT 08/01 A3032 RMK A01 T00760010  RH  064%=      5-min Rain = 0
KTAT 092155Z 17003KT 08/01 A3032 RMK A01 T00800012  RH  063%=      5-min Rain = 0
KTAT 092200Z 19004KT 08/01 A3032 RMK A01 T00750009  RH  064%=      5-min Rain = 0
KTAT 092205Z 17003KT 07/01 A3032 RMK A01 T00740010  RH  065%=      5-min Rain = 0
KTAT 092210Z 17002KT 08/01 A3032 RMK A01 T00780011  RH  063%=      5-min Rain = 0
KTAT 092215Z 13003KT 07/01 A3032 RMK A01 T00730006  RH  063%=      5-min Rain = 0
KTAT 092220Z 13003KT 07/01 A3032 RMK A01 T00660005  RH  066%=      5-min Rain = 0
KTAT 092225Z 12003KT 06/00 A3032 RMK A01 T00630004  RH  067%=      5-min Rain = 0
KTAT 092230Z 12003KT 06/01 A3032 RMK A01 T00630005  RH  067%=      5-min Rain = 0
KTAT 092235Z 11003KT 06/01 A3032 RMK A01 T00640005  RH  067%=      5-min Rain = 0
KTAT 092240Z 13003KT 06/00 A3032 RMK A01 T00640004  RH  066%=      5-min Rain = 0
KTAT 092245Z 14003KT 06/00 A3032 RMK A01 T00630004  RH  067%=      5-min Rain = 0
KTAT 092250Z 14003KT 06/00 A3032 RMK A01 T00610002  RH  067%=      5-min Rain = 0
KTAT 092255Z 15003KT 06/00 A3032 RMK A01 T00600003  RH  068%=      5-min Rain = 0
KTAT 092300Z 15004KT 06/00 A3032 RMK A01 T00610003  RH  067%=      5-min Rain = 0
KTAT 092305Z 15004KT 06/00 A3032 RMK A01 T00590003  RH  068%=      5-min Rain = 0
KTAT 092310Z 15004KT 06/00 A3032 RMK A01 T00590004  RH  069%=      5-min Rain = 0
KTAT 092315Z 15004KT 06/00 A3032 RMK A01 T00570003  RH  069%=      5-min Rain = 0
KTAT 092320Z 14004KT 05/00 A3032 RMK A01 T00520002  RH  071%=      5-min Rain = 0
KTAT 092325Z 15004KT 05/00 A3032 RMK A01 T00500001  RH  071%=      5-min Rain = 0
KTAT 092330Z 15004KT 05/M00 A3032 RMK A01 T00471001  RH  072%=      5-min Rain = 0
KTAT 092335Z 16005KT 04/M00 A3033 RMK A01 T00431003  RH  073%=      5-min Rain = 0
KTAT 092340Z 16004KT 04/M01 A3033 RMK A01 T00371006  RH  075%=      5-min Rain = 0
KTAT 092345Z 15005KT 03/M01 A3032 RMK A01 T00311008  RH  076%=      5-min Rain = 0
KTAT 092350Z 15005KT 02/M01 A3032 RMK A01 T00241012  RH  078%=      5-min Rain = 0
KTAT 092355Z 13006KT 02/M01 A3032 RMK A01 T00181013  RH  081%=      5-min Rain = 0
KTAT 100000Z 13005KT 01/M01 A3032 RMK A01 T00131014  RH  083%=      5-min Rain = 0
KTAT 100005Z 14004KT 01/M02 A3033 RMK A01 T00101015  RH  084%=      5-min Rain = 0
KTAT 100010Z 14004KT 01/M01 A3033 RMK A01 T00091013  RH  086%=      5-min Rain = 0
KTAT 100015Z 15004KT 01/M01 A3033 RMK A01 T00081014  RH  086%=      5-min Rain = 0
KTAT 100020Z 14005KT 01/M02 A3033 RMK A01 T00061015  RH  087%=      5-min Rain = 0
KTAT 100025Z 14005KT 00/M02 A3033 RMK A01 T00031017  RH  087%=      5-min Rain = 0
KTAT 100030Z 14005KT 00/02 A3033 RMK A01 T00000-19  RH  088%=      5-min Rain = 0
KTAT 100035Z 14005KT M00/M02 A3033 RMK A01 T10011018  RH  089%=      5-min Rain = 0
KTAT 100040Z 14006KT M00/M02 A3033 RMK A01 T10011016  RH  090%=      5-min Rain = 0
KTAT 100045Z 14006KT M00/M02 A3033 RMK A01 T10041020  RH  090%=      5-min Rain = 0
KTAT 100050Z 14006KT M01/M02 A3034 RMK A01 T10081023  RH  090%=      5-min Rain = 0
KTAT 100055Z 14005KT M01/M02 A3034 RMK A01 T10081022  RH  091%=      5-min Rain = 0
KTAT 100100Z 14005KT M01/M02 A3034 RMK A01 T10081021  RH  091%=      5-min Rain = 0
KTAT 100105Z 14004KT M01/M02 A3035 RMK A01 T10071020  RH  091%=      5-min Rain = 0
KTAT 100110Z 15004KT M01/M02 A3035 RMK A01 T10071020  RH  092%=      5-min Rain = 0
KTAT 100115Z 16004KT M01/M02 A3035 RMK A01 T10061019  RH  092%=      5-min Rain = 0
KTAT 100120Z 15004KT M01/M02 A3035 RMK A01 T10081022  RH  091%=      5-min Rain = 0
KTAT 100125Z 14004KT M01/M02 A3035 RMK A01 T10081021  RH  091%=      5-min Rain = 0
KTAT 100130Z 12004KT M01/M02 A3036 RMK A01 T10091022  RH  091%=      5-min Rain = 0
KTAT 100135Z 10004KT M01/M03 A3036 RMK A01 T10131027  RH  091%=      5-min Rain = 0
KTAT 100140Z 12004KT M01/M03 A3036 RMK A01 T10141025  RH  092%=      5-min Rain = 0
KTAT 100145Z 13003KT M01/M02 A3036 RMK A01 T10131024  RH  093%=      5-min Rain = 0
KTAT 100150Z 16003KT M02/M03 A3036 RMK A01 T10171031  RH  091%=      5-min Rain = 0
KTAT 100155Z 19002KT M02/M04 A3036 RMK A01 T10231036  RH  092%=      5-min Rain = 0
KTAT 100200Z 20002KT M02/M03 A3036 RMK A01 T10231034  RH  093%=      5-min Rain = 0
KTAT 100205Z 23006KT M02/M03 A3036 RMK A01 T10221031  RH  094%=      5-min Rain = 0
KTAT 100210Z 22007KT M02/M03 A3036 RMK A01 T10191028  RH  094%=      5-min Rain = 0
KTAT 100215Z 22006KT M02/M03 A3036 RMK A01 T10181027  RH  094%=      5-min Rain = 0
KTAT 100220Z 22007KT M02/M03 A3036 RMK A01 T10181027  RH  094%=      5-min Rain = 0
KTAT 100225Z 22007KT M02/M03 A3036 RMK A01 T10171026  RH  094%=      5-min Rain = 0
KTAT 100230Z 23006KT M02/M03 A3036 RMK A01 T10171026  RH  094%=      5-min Rain = 0
KTAT 100235Z 24006KT M02/M03 A3036 RMK A01 T10171026  RH  094%=      5-min Rain = 0
KTAT 100240Z 25007KT M02/M03 A3036 RMK A01 T10171026  RH  094%=      5-min Rain = 0
KTAT 100245Z 25007KT M02/M03 A3036 RMK A01 T10171026  RH  095%=      5-min Rain = 0
KTAT 100250Z 26007KT M02/M03 A3037 RMK A01 T10181027  RH  094%=      5-min Rain = 0
KTAT 100255Z 26007KT M02/M03 A3036 RMK A01 T10181026  RH  095%=      5-min Rain = 0
KTAT 100300Z 26005KT M02/M02 A3037 RMK A01 T10161024  RH  095%=      5-min Rain = 0
KTAT 100305Z 26004KT M02/M02 A3037 RMK A01 T10161024  RH  095%=      5-min Rain = 0
KTAT 100310Z 27004KT M02/M02 A3037 RMK A01 T10151023  RH  095%=      5-min Rain = 0
KTAT 100315Z 27003KT M02/M03 A3037 RMK A01 T10171025  RH  094%=      5-min Rain = 0
KTAT 100320Z 26005KT M02/M03 A3037 RMK A01 T10201030  RH  094%=      5-min Rain = 0
KTAT 100325Z 26005KT M02/M03 A3037 RMK A01 T10221030  RH  094%=      5-min Rain = 0
KTAT 100330Z 27005KT M02/M03 A3038 RMK A01 T10231032  RH  094%=      5-min Rain = 0
KTAT 100335Z 28005KT M03/M03 A3038 RMK A01 T10261034  RH  094%=      5-min Rain = 0
KTAT 100340Z 28006KT M03/M04 A3038 RMK A01 T10281036  RH  094%=      5-min Rain = 0
KTAT 100345Z 29007KT M03/M04 A3038 RMK A01 T10281036  RH  095%=      5-min Rain = 0
KTAT 100350Z 30008KT M03/M03 A3038 RMK A01 T10251033  RH  095%=      5-min Rain = 0
KTAT 100355Z 31008KT M02/M03 A3039 RMK A01 T10221030  RH  095%=      5-min Rain = 0
KTAT 100400Z 31007KT M02/M03 A3039 RMK A01 T10201028  RH  095%=      5-min Rain = 0
KTAT 100405Z 31007KT M02/M03 A3039 RMK A01 T10191027  RH  095%=      5-min Rain = 0
KTAT 100410Z 31006KT M02/M03 A3039 RMK A01 T10191028  RH  095%=      5-min Rain = 0
KTAT 100415Z 30006KT M02/M03 A3039 RMK A01 T10201028  RH  094%=      5-min Rain = 0
KTAT 100420Z 30007KT M02/M03 A3039 RMK A01 T10211029  RH  094%=      5-min Rain = 0
KTAT 100425Z 30007KT M02/M03 A3039 RMK A01 T10211030  RH  094%=      5-min Rain = 0
KTAT 100430Z 30006KT M02/M03 A3039 RMK A01 T10221031  RH  094%=      5-min Rain = 0
KTAT 100435Z 30006KT M02/M03 A3039 RMK A01 T10241033  RH  094%=      5-min Rain = 0
KTAT 100440Z 30005KT M03/M03 A3039 RMK A01 T10251034  RH  094%=      5-min Rain = 0
KTAT 100445Z 31005KT M03/M04 A3039 RMK A01 T10271035  RH  094%=      5-min Rain = 0
KTAT 100450Z 30005KT M03/M04 A3039 RMK A01 T10281037  RH  094%=      5-min Rain = 0
KTAT 100455Z 30005KT M03/M04 A3039 RMK A01 T10301039  RH  094%=      5-min Rain = 0
KTAT 100500Z 31005KT M03/M04 A3039 RMK A01 T10321041  RH  094%=      5-min Rain = 0
KTAT 100505Z 31005KT M03/M04 A3039 RMK A01 T10331041  RH  094%=      5-min Rain = 0
KTAT 100510Z 32005KT M03/M04 A3039 RMK A01 T10331042  RH  094%=      5-min Rain = 0
KTAT 100515Z 32004KT M03/M04 A3039 RMK A01 T10341042  RH  094%=      5-min Rain = 0
KTAT 100520Z 32005KT M04/M04 A3039 RMK A01 T10351043  RH  094%=      5-min Rain = 0
KTAT 100525Z 32005KT M04/M05 A3039 RMK A01 T10361045  RH  094%=      5-min Rain = 0
KTAT 100530Z 33005KT M04/M04 A3039 RMK A01 T10361044  RH  095%=      5-min Rain = 0
KTAT 100535Z 33004KT M04/M04 A3039 RMK A01 T10361044  RH  095%=      5-min Rain = 0
KTAT 100540Z 33004KT M04/M04 A3039 RMK A01 T10361044  RH  095%=      5-min Rain = 0
KTAT 100545Z 31003KT M04/M04 A3039 RMK A01 T10361044  RH  095%=      5-min Rain = 0
KTAT 100550Z 31003KT M04/M04 A3039 RMK A01 T10361044  RH  095%=      5-min Rain = 0
KTAT 100555Z 30003KT M04/M04 A3039 RMK A01 T10361044  RH  094%=      5-min Rain = 0

Page generated in 0.0346 seconds.